createdAt,value
2019-05-15T00:01:28.390Z,6.80
2019-05-15T00:03:55.673Z,6.90
2019-05-15T00:06:23.325Z,6.80
2019-05-15T00:08:50.967Z,6.80
2019-05-15T00:11:19.272Z,6.70
2019-05-15T00:13:48.371Z,6.70
2019-05-15T00:16:18.056Z,6.70
2019-05-15T00:18:45.569Z,6.70
2019-05-15T00:21:13.438Z,6.80
2019-05-15T00:23:41.091Z,6.80
2019-05-15T00:26:09.405Z,6.80
2019-05-15T00:28:38.883Z,6.70
2019-05-15T00:31:09.040Z,6.70
2019-05-15T00:33:36.376Z,6.60
2019-05-15T00:36:05.258Z,6.60
2019-05-15T00:38:32.991Z,6.60
2019-05-15T00:41:00.739Z,6.60
2019-05-15T00:43:29.144Z,6.60
2019-05-15T00:45:58.533Z,6.50
2019-05-15T00:48:29.042Z,6.50
2019-05-15T00:50:55.956Z,6.50
2019-05-15T00:53:23.667Z,6.50
2019-05-15T00:55:51.323Z,6.50
2019-05-15T00:58:19.899Z,6.40
2019-05-15T01:00:48.667Z,6.40
2019-05-15T01:03:18.230Z,6.40
2019-05-15T01:05:48.049Z,6.40
2019-05-15T01:08:18.933Z,6.40
2019-05-15T01:10:46.103Z,6.40
2019-05-15T01:13:13.878Z,6.30
2019-05-15T01:15:41.768Z,6.30
2019-05-15T01:18:09.687Z,6.30
2019-05-15T01:20:39.094Z,6.30
2019-05-15T01:23:08.887Z,6.30
2019-05-15T01:25:38.654Z,6.30
2019-05-15T01:28:06.126Z,6.40
2019-05-15T01:30:33.793Z,6.30
2019-05-15T01:33:01.444Z,6.30
2019-05-15T01:35:29.235Z,6.30
2019-05-15T01:37:58.601Z,6.30
2019-05-15T01:40:28.764Z,6.30
2019-05-15T01:42:58.160Z,6.30
2019-05-15T01:45:25.478Z,6.30
2019-05-15T01:47:53.131Z,6.30
2019-05-15T01:50:21.218Z,6.30
2019-05-15T01:52:48.870Z,6.20
2019-05-15T01:55:18.167Z,6.20
2019-05-15T01:57:46.043Z,6.30
2019-05-15T02:00:14.030Z,6.30
2019-05-15T02:02:41.704Z,6.20
2019-05-15T02:05:09.430Z,6.30
2019-05-15T02:07:39.148Z,6.30
2019-05-15T02:10:08.911Z,6.30
2019-05-15T02:12:38.633Z,6.30
2019-05-15T02:15:08.370Z,6.20
2019-05-15T02:17:35.503Z,6.30
2019-05-15T02:20:03.664Z,6.30
2019-05-15T02:22:31.316Z,6.30
2019-05-15T02:24:59.324Z,6.20
2019-05-15T02:27:28.835Z,6.20
2019-05-15T02:30:12.970Z,6.20
2019-05-15T02:32:29.888Z,6.20
2019-05-15T02:34:58.865Z,6.20
2019-05-15T02:37:24.963Z,6.20
2019-05-15T02:39:53.059Z,6.20
2019-05-15T02:42:20.955Z,6.30
2019-05-15T02:44:49.989Z,6.20
2019-05-15T02:47:19.865Z,6.20
2019-05-15T02:49:48.588Z,6.20
2019-05-15T02:52:19.634Z,6.20
2019-05-15T02:54:49.508Z,6.10
2019-05-15T02:57:15.356Z,6.10
2019-05-15T02:59:43.015Z,6.10
2019-05-15T03:02:10.689Z,6.20
2019-05-15T03:04:40.050Z,6.10
2019-05-15T03:07:09.579Z,6.20
2019-05-15T03:09:39.928Z,6.10
2019-05-15T03:12:09.067Z,6.10
2019-05-15T03:14:39.605Z,6.00
2019-05-15T03:17:09.524Z,6.10
2019-05-15T03:19:38.994Z,6.10
2019-05-15T03:22:05.032Z,6.00
2019-05-15T03:24:32.745Z,6.00
2019-05-15T03:27:00.786Z,6.00
2019-05-15T03:29:29.160Z,4.60
2019-05-15T03:32:09.353Z,6.00
2019-05-15T03:34:35.283Z,5.90
2019-05-15T03:36:55.985Z,5.90
2019-05-15T03:39:23.741Z,5.90
2019-05-15T03:41:52.153Z,5.90
2019-05-15T03:44:20.040Z,5.90
2019-05-15T03:46:49.141Z,5.90
2019-05-15T03:49:19.682Z,6.00
2019-05-15T03:51:49.722Z,6.00
2019-05-15T03:54:18.713Z,6.00
2019-05-15T03:56:45.337Z,6.00
2019-05-15T03:59:13.073Z,6.00
2019-05-15T04:01:43.750Z,6.00
2019-05-15T04:04:10.275Z,5.90
2019-05-15T04:06:39.080Z,6.00
2019-05-15T04:09:09.605Z,6.00
2019-05-15T04:11:38.842Z,6.10
2019-05-15T04:14:06.129Z,6.00
2019-05-15T04:16:33.850Z,6.00
2019-05-15T04:19:01.532Z,6.00
2019-05-15T04:21:30.380Z,6.10
2019-05-15T04:23:58.839Z,6.10
2019-05-15T04:26:28.668Z,6.10
2019-05-15T04:28:59.883Z,6.10
2019-05-15T04:31:25.867Z,6.10
2019-05-15T04:33:53.880Z,6.10
2019-05-15T04:36:21.534Z,6.10
2019-05-15T04:38:50.035Z,6.20
2019-05-15T04:41:19.784Z,6.20
2019-05-15T04:43:49.493Z,6.20
2019-05-15T04:46:19.677Z,6.30
2019-05-15T04:48:49.875Z,6.30
2019-05-15T04:51:19.020Z,6.40
2019-05-15T04:53:49.912Z,6.30
2019-05-15T04:56:15.696Z,6.50
2019-05-15T04:58:43.733Z,6.50
2019-05-15T05:01:11.381Z,6.50
2019-05-15T05:03:39.700Z,6.50
2019-05-15T05:06:09.793Z,6.50
2019-05-15T05:08:39.731Z,6.30
2019-05-15T05:11:09.419Z,6.40
2019-05-15T05:13:38.958Z,6.50
2019-05-15T05:16:05.556Z,6.50
2019-05-15T05:18:33.419Z,6.60
2019-05-15T05:21:01.117Z,6.50
2019-05-15T05:23:28.763Z,6.50
2019-05-15T05:25:58.150Z,6.40
2019-05-15T05:28:26.059Z,6.50
2019-05-15T05:30:53.787Z,6.60
2019-05-15T05:33:21.795Z,6.60
2019-05-15T05:35:49.524Z,6.40
2019-05-15T05:38:19.224Z,6.40
2019-05-15T05:40:49.165Z,6.60
2019-05-15T05:43:18.417Z,6.60
2019-05-15T05:45:45.710Z,6.60
2019-05-15T05:48:13.400Z,6.50
2019-05-15T05:50:44.427Z,6.50
2019-05-15T05:53:12.411Z,6.60
2019-05-15T05:55:40.127Z,6.50
2019-05-15T05:58:08.206Z,6.40
2019-05-15T06:00:39.196Z,6.40
2019-05-15T06:03:08.677Z,6.40
2019-05-15T06:05:38.728Z,6.40
2019-05-15T06:08:08.059Z,6.40
2019-05-15T06:10:38.376Z,6.30
2019-05-15T06:13:08.522Z,6.30
2019-05-15T06:15:35.203Z,6.30
2019-05-15T06:18:03.019Z,6.30
2019-05-15T06:20:30.766Z,6.30
2019-05-15T06:22:58.489Z,6.40
2019-05-15T06:25:30.263Z,6.30
2019-05-15T06:27:58.217Z,6.20
2019-05-15T06:30:30.259Z,6.10
2019-05-15T06:33:05.732Z,6.10
2019-05-15T06:35:25.891Z,6.30
2019-05-15T06:37:53.666Z,6.30
2019-05-15T06:40:21.504Z,6.40
2019-05-15T06:42:49.489Z,6.50
2019-05-15T06:45:18.894Z,6.50
2019-05-15T06:47:48.228Z,6.40
2019-05-15T06:50:17.988Z,6.40
2019-05-15T06:52:45.659Z,6.40
2019-05-15T06:55:13.492Z,6.30
2019-05-15T06:57:41.218Z,6.30
2019-05-15T07:00:09.244Z,6.20
2019-05-15T07:02:38.281Z,6.20
2019-05-15T07:05:07.899Z,6.30
2019-05-15T07:07:37.950Z,6.10
2019-05-15T07:10:08.710Z,6.10
2019-05-15T07:15:04.830Z,6.30
2019-05-15T07:17:32.764Z,6.30
2019-05-15T07:20:00.475Z,6.60
2019-05-15T07:22:28.889Z,6.50
2019-05-15T07:24:58.233Z,6.50
2019-05-15T07:27:28.344Z,6.30
2019-05-15T07:29:55.538Z,6.20
2019-05-15T07:32:24.328Z,6.30
2019-05-15T07:34:52.008Z,6.40
2019-05-15T07:37:19.695Z,6.30
2019-05-15T07:39:48.793Z,6.30
2019-05-15T07:42:18.514Z,6.20
2019-05-15T07:44:48.159Z,6.10
2019-05-15T07:47:15.433Z,6.00
2019-05-15T07:49:43.453Z,5.90
2019-05-15T07:54:38.534Z,6.00
2019-05-15T07:57:06.299Z,6.10
2019-05-15T07:59:34.299Z,6.30
2019-05-15T08:02:02.009Z,6.20
2019-05-15T08:04:32.881Z,6.10
2019-05-15T08:06:59.422Z,6.20
2019-05-15T08:09:28.368Z,6.30
2019-05-15T08:11:56.206Z,6.40
2019-05-15T08:14:23.990Z,6.40
2019-05-15T08:16:51.688Z,6.30
2019-05-15T08:19:19.363Z,6.30
2019-05-15T08:21:51.629Z,6.30
2019-05-15T08:24:18.765Z,6.20
2019-05-15T08:26:46.521Z,6.40
2019-05-15T08:31:44.323Z,6.60
2019-05-15T08:34:16.171Z,6.60
2019-05-15T08:36:41.483Z,6.60
2019-05-15T08:39:09.188Z,6.30
2019-05-15T08:41:38.863Z,6.40
2019-05-15T08:44:08.749Z,6.40
2019-05-15T08:46:38.557Z,6.30
2019-05-15T08:49:06.044Z,6.60
2019-05-15T08:51:34.008Z,6.50
2019-05-15T08:54:01.646Z,6.30
2019-05-15T08:56:29.333Z,6.60
2019-05-15T08:58:58.047Z,6.40
2019-05-15T09:01:28.621Z,6.40
2019-05-15T09:03:58.039Z,6.50
2019-05-15T09:06:25.243Z,6.50
2019-05-15T09:08:53.082Z,6.60
2019-05-15T09:11:20.988Z,6.70
2019-05-15T09:13:53.891Z,6.70
2019-05-15T09:16:18.585Z,6.50
2019-05-15T09:18:48.494Z,6.40
2019-05-15T09:21:15.854Z,6.50
2019-05-15T09:23:43.489Z,6.60
2019-05-15T09:26:11.257Z,6.70
2019-05-15T09:28:39.320Z,6.80
2019-05-15T09:31:08.385Z,6.90
2019-05-15T09:33:38.675Z,6.70
2019-05-15T09:36:06.212Z,6.90
2019-05-15T09:38:33.867Z,6.80
2019-05-15T09:41:02.761Z,6.80
2019-05-15T09:43:30.662Z,7.00
2019-05-15T09:45:58.543Z,6.70
2019-05-15T09:48:28.600Z,6.80
2019-05-15T09:50:55.813Z,6.70
2019-05-15T09:53:23.749Z,6.80
2019-05-15T09:55:51.560Z,6.70
2019-05-15T09:58:20.613Z,6.70
2019-05-15T10:00:51.892Z,6.90
2019-05-15T10:03:19.099Z,6.70
2019-05-15T10:08:16.166Z,6.80
2019-05-15T10:10:43.938Z,6.80
2019-05-15T10:13:11.648Z,6.80
2019-05-15T10:15:39.284Z,6.70
2019-05-15T10:18:09.918Z,6.80
2019-05-15T10:20:37.960Z,6.70
2019-05-15T10:23:08.565Z,6.80
2019-05-15T10:25:35.316Z,6.70
2019-05-15T10:28:03.109Z,6.70
2019-05-15T10:30:30.752Z,6.60
2019-05-15T10:32:58.664Z,6.60
2019-05-15T10:35:29.245Z,6.80
2019-05-15T10:37:55.781Z,7.00
2019-05-15T10:40:23.500Z,6.90
2019-05-15T10:42:51.185Z,6.90
2019-05-15T10:45:19.398Z,6.60
2019-05-15T10:47:49.664Z,6.60
2019-05-15T10:50:18.955Z,6.60
2019-05-15T10:52:48.745Z,6.50
2019-05-15T10:57:44.524Z,6.50
2019-05-15T11:00:14.149Z,6.50
2019-05-15T11:02:41.980Z,6.50
2019-05-15T11:05:10.607Z,6.60
2019-05-15T11:07:39.401Z,6.60
2019-05-15T11:10:08.587Z,6.50
2019-05-15T11:12:36.785Z,6.50
2019-05-15T11:15:05.598Z,6.50
2019-05-15T11:17:33.423Z,6.40
2019-05-15T11:20:01.098Z,6.40
2019-05-15T11:22:29.845Z,6.20
2019-05-15T11:24:59.443Z,6.10
2019-05-15T11:27:27.919Z,6.20
2019-05-15T11:29:58.545Z,6.20
2019-05-15T11:32:29.190Z,6.10
2019-05-15T11:34:58.246Z,6.10
2019-05-15T11:39:54.615Z,6.10
2019-05-15T11:42:22.658Z,6.00
2019-05-15T11:44:53.211Z,6.10
2019-05-15T11:47:19.726Z,6.10
2019-05-15T11:49:47.492Z,6.20
2019-05-15T11:52:15.217Z,6.10
2019-05-15T11:54:42.929Z,6.10
2019-05-15T11:57:12.158Z,6.10
2019-05-15T11:59:45.213Z,6.00
2019-05-15T12:04:38.347Z,6.20
2019-05-15T12:07:08.562Z,6.20
2019-05-15T12:09:35.811Z,6.00
2019-05-15T12:12:03.703Z,6.00
2019-05-15T12:14:31.389Z,6.00
2019-05-15T12:17:06.918Z,6.20
2019-05-15T12:19:29.299Z,6.20
2019-05-15T12:21:59.793Z,6.30
2019-05-15T12:24:32.725Z,6.20
2019-05-15T12:26:56.312Z,6.00
2019-05-15T12:29:28.561Z,6.00
2019-05-15T12:31:58.786Z,6.10
2019-05-15T12:34:28.215Z,6.10
2019-05-15T12:36:58.056Z,6.10
2019-05-15T12:39:29.498Z,6.10
2019-05-15T13:01:50.630Z,6.00
2019-05-15T13:04:19.996Z,5.90
2019-05-15T13:07:10.103Z,5.90
2019-05-15T13:09:19.311Z,6.00
2019-05-15T13:11:48.511Z,5.90
2019-05-15T13:14:18.896Z,6.00
2019-05-15T13:16:48.049Z,5.90
2019-05-15T13:19:18.936Z,5.90
2019-05-15T13:21:51.403Z,5.70
2019-05-15T13:24:19.412Z,5.80
2019-05-15T13:26:47.675Z,5.70
2019-05-15T13:29:18.190Z,5.70
2019-05-15T13:31:47.777Z,5.80
2019-05-15T13:34:15.712Z,5.80
2019-05-15T13:36:43.425Z,5.90
2019-05-15T13:39:11.416Z,6.00
2019-05-15T13:41:39.061Z,5.80
2019-05-15T13:44:08.843Z,5.80
2019-05-15T13:46:38.115Z,5.70
2019-05-15T13:51:33.261Z,5.80
2019-05-15T13:54:01.030Z,5.80
2019-05-15T13:56:29.105Z,5.90
2019-05-15T13:58:58.712Z,5.90
2019-05-15T14:03:55.791Z,5.90
2019-05-15T14:06:23.435Z,5.90
2019-05-15T14:08:51.188Z,5.90
2019-05-15T14:11:21.729Z,5.90
2019-05-15T14:13:48.756Z,5.90
2019-05-15T14:16:19.071Z,5.90
2019-05-15T14:18:47.973Z,5.90
2019-05-15T14:21:15.547Z,5.90
2019-05-15T14:23:43.245Z,5.80
2019-05-15T14:26:22.379Z,5.80
2019-05-15T14:28:41.341Z,5.70
2019-05-15T14:31:09.866Z,5.80
2019-05-15T14:33:38.528Z,5.80
2019-05-15T14:36:08.319Z,5.80
2019-05-15T14:38:37.765Z,5.80
2019-05-15T14:41:05.975Z,5.80
2019-05-15T14:43:33.715Z,5.90
2019-05-15T14:46:01.652Z,5.90
2019-05-15T14:48:29.388Z,5.90
2019-05-15T14:50:58.369Z,5.90
2019-05-15T14:53:29.194Z,5.90
2019-05-15T14:55:55.859Z,5.90
2019-05-15T14:58:23.756Z,5.90
2019-05-15T15:00:51.680Z,5.90
2019-05-15T15:03:19.340Z,5.90
2019-05-15T15:05:49.259Z,5.90
2019-05-15T15:08:24.223Z,5.90
2019-05-15T15:10:46.412Z,5.90
2019-05-15T15:13:14.052Z,6.00
2019-05-15T15:15:42.413Z,5.90
2019-05-15T15:18:10.158Z,5.90
2019-05-15T15:20:38.220Z,5.90
2019-05-15T15:23:08.256Z,6.00
2019-05-15T15:25:35.829Z,6.00
2019-05-15T15:28:03.529Z,6.00
2019-05-15T15:30:31.291Z,6.00
2019-05-15T15:32:59.399Z,6.10
2019-05-15T15:35:28.911Z,6.10
2019-05-15T15:37:58.080Z,6.10
2019-05-15T15:40:28.246Z,6.10
2019-05-15T15:42:57.891Z,6.20
2019-05-15T15:45:25.147Z,6.10
2019-05-15T15:47:52.931Z,6.20
2019-05-15T15:50:22.407Z,6.20
2019-05-15T15:52:50.133Z,6.20
2019-05-15T15:55:18.439Z,6.30
2019-05-15T16:00:18.337Z,6.20
2019-05-15T16:02:48.220Z,6.20
2019-05-15T16:05:15.432Z,6.10
2019-05-15T16:07:43.641Z,6.20
2019-05-15T16:10:11.663Z,6.20
2019-05-15T16:12:39.393Z,6.20
2019-05-15T16:15:08.892Z,6.30
2019-05-15T16:17:38.529Z,6.30
2019-05-15T16:20:08.118Z,6.20
2019-05-15T16:22:37.929Z,6.30
2019-05-15T16:25:09.271Z,6.20
2019-05-15T16:27:38.155Z,6.20
2019-05-15T16:30:08.227Z,6.20
2019-05-15T16:32:35.499Z,6.20
2019-05-15T16:35:03.716Z,6.20
2019-05-15T16:37:31.360Z,6.30
2019-05-15T16:40:00.016Z,6.20
2019-05-15T16:42:28.647Z,6.30
2019-05-15T16:44:58.456Z,6.20
2019-05-15T16:47:27.973Z,6.20
2019-05-15T16:49:57.608Z,6.20
2019-05-15T16:52:24.856Z,6.30
2019-05-15T16:54:53.094Z,6.20
2019-05-15T16:57:20.751Z,6.20
2019-05-15T16:59:48.540Z,6.30
2019-05-15T17:02:18.634Z,6.30
2019-05-15T17:04:45.615Z,6.30
2019-05-15T17:07:13.745Z,6.30
2019-05-15T17:09:41.920Z,6.20
2019-05-15T17:12:09.651Z,6.20
2019-05-15T17:14:38.888Z,6.20
2019-05-15T17:17:07.984Z,6.30
2019-05-15T17:19:35.869Z,6.30
2019-05-15T17:22:03.633Z,6.30
2019-05-15T17:24:31.315Z,6.30
2019-05-15T17:26:59.770Z,6.30
2019-05-15T17:29:29.168Z,6.20
2019-05-15T17:31:57.371Z,6.20
2019-05-15T17:34:25.020Z,6.20
2019-05-15T17:36:52.852Z,6.20
2019-05-15T17:39:33.634Z,6.20
2019-05-15T17:41:50.898Z,6.20
2019-05-15T17:44:18.988Z,6.20
2019-05-15T17:46:48.851Z,6.20
2019-05-15T17:49:16.025Z,6.20
2019-05-15T17:51:43.758Z,6.20
2019-05-15T17:54:11.511Z,6.20
2019-05-15T17:56:39.383Z,6.20
2019-05-15T17:59:08.648Z,6.30
2019-05-15T18:04:08.237Z,6.30
2019-05-15T18:06:35.582Z,6.20
2019-05-15T18:09:04.979Z,6.30
2019-05-15T18:11:32.638Z,6.20
2019-05-15T18:14:00.285Z,6.20
2019-05-15T18:16:28.046Z,6.30
2019-05-15T18:18:55.696Z,6.30
2019-05-15T18:21:23.407Z,6.30
2019-05-15T18:23:51.427Z,6.30
2019-05-15T18:26:19.144Z,6.30
2019-05-15T18:28:48.946Z,6.30
2019-05-15T18:31:18.195Z,6.30
2019-05-15T18:33:53.388Z,6.30
2019-05-15T18:36:15.507Z,6.30
2019-05-15T18:38:43.344Z,6.30
2019-05-15T18:41:10.984Z,6.30
2019-05-15T18:43:38.625Z,6.30
2019-05-15T18:46:08.870Z,6.30
2019-05-15T18:48:38.001Z,6.30
2019-05-15T18:51:07.936Z,6.40
2019-05-15T18:53:38.840Z,6.30
2019-05-15T18:56:08.946Z,6.30
2019-05-15T18:58:39.370Z,6.30
2019-05-15T19:01:09.376Z,6.30
2019-05-15T19:03:38.461Z,6.40
2019-05-15T19:06:06.094Z,6.40
2019-05-15T19:08:33.805Z,6.30
2019-05-15T19:11:01.684Z,6.30
2019-05-15T19:13:29.343Z,6.30
2019-05-15T19:15:58.009Z,6.30
2019-05-15T19:18:27.933Z,6.40
2019-05-15T19:20:58.424Z,6.40
2019-05-15T19:23:25.836Z,6.40
2019-05-15T19:25:53.628Z,6.40
2019-05-15T19:28:21.562Z,6.40
2019-05-15T19:30:49.216Z,6.50
2019-05-15T19:33:22.515Z,6.40
2019-05-15T19:35:47.671Z,6.40
2019-05-15T19:38:15.467Z,6.40
2019-05-15T19:40:44.123Z,6.40
2019-05-15T19:43:11.787Z,6.40
2019-05-15T19:45:41.493Z,6.40
2019-05-15T19:48:09.210Z,6.40
2019-05-15T19:50:36.979Z,6.40
2019-05-15T19:53:04.619Z,6.40
2019-05-15T19:55:32.547Z,6.40
2019-05-15T19:58:00.200Z,6.50
2019-05-15T20:00:28.465Z,6.40
2019-05-15T20:02:58.138Z,6.50
2019-05-15T20:05:26.172Z,6.50
2019-05-15T20:07:53.858Z,6.40
2019-05-15T20:10:21.571Z,6.50
2019-05-15T20:12:49.280Z,6.50
2019-05-15T20:15:19.011Z,6.40
2019-05-15T20:17:47.883Z,6.50
2019-05-15T20:20:18.649Z,6.50
2019-05-15T20:22:46.023Z,6.50
2019-05-15T20:25:13.779Z,6.50
2019-05-15T20:27:41.447Z,6.50
2019-05-15T20:30:09.733Z,6.50
2019-05-15T20:35:08.562Z,6.50
2019-05-15T20:37:38.902Z,6.50
2019-05-15T20:40:09.084Z,6.60
2019-05-15T20:42:38.067Z,6.50
2019-05-15T20:45:11.283Z,6.60
2019-05-15T20:47:38.576Z,6.50
2019-05-15T20:50:08.303Z,6.50
2019-05-15T20:52:35.576Z,6.50
2019-05-15T20:55:04.199Z,6.50
2019-05-15T20:57:32.136Z,6.50
2019-05-15T20:59:59.891Z,6.50
2019-05-15T21:02:29.004Z,6.60
2019-05-15T21:04:58.318Z,6.60
2019-05-15T21:07:35.755Z,6.60
2019-05-15T21:09:55.705Z,6.50
2019-05-15T21:12:26.237Z,6.50
2019-05-15T21:14:53.071Z,6.50
2019-05-15T21:17:20.840Z,6.50
2019-05-15T21:19:49.005Z,6.60
2019-05-15T21:22:18.084Z,6.60
2019-05-15T21:24:46.035Z,6.60
2019-05-15T21:27:13.686Z,6.60
2019-05-15T21:29:41.411Z,6.60
2019-05-15T21:32:09.112Z,6.50
2019-05-15T21:34:41.218Z,6.60
2019-05-15T21:37:08.546Z,6.50
2019-05-15T21:39:39.076Z,6.50
2019-05-15T21:42:08.708Z,6.50
2019-05-15T21:44:38.124Z,6.60
2019-05-15T21:47:05.177Z,6.60
2019-05-15T21:49:33.172Z,6.50
2019-05-15T21:52:01.504Z,6.50
2019-05-15T21:54:29.218Z,6.60
2019-05-15T21:57:12.974Z,6.60
2019-05-15T21:59:27.882Z,6.60
2019-05-15T22:01:55.751Z,6.50
2019-05-15T22:04:23.625Z,6.50
2019-05-15T22:06:51.447Z,6.60
2019-05-15T22:09:20.870Z,6.60
2019-05-15T22:11:49.695Z,6.60
2019-05-15T22:14:18.200Z,6.50
2019-05-15T22:16:46.483Z,6.60
2019-05-15T22:19:14.410Z,6.50
2019-05-15T22:21:42.318Z,6.60
2019-05-15T22:24:10.102Z,6.60
2019-05-15T22:26:38.226Z,6.50
2019-05-15T22:29:06.282Z,6.50
2019-05-15T22:34:03.293Z,6.60
2019-05-15T22:36:31.252Z,6.60
2019-05-15T22:38:59.474Z,6.60
2019-05-15T22:41:28.469Z,6.60
2019-05-15T22:43:56.639Z,6.60
2019-05-15T22:46:24.743Z,6.60
2019-05-15T22:48:52.820Z,6.50
2019-05-15T22:51:20.824Z,6.50
2019-05-15T22:53:49.014Z,6.50
2019-05-15T22:56:18.174Z,6.50
2019-05-15T22:58:48.060Z,6.50
2019-05-15T23:01:15.583Z,6.60
2019-05-15T23:03:43.361Z,6.50
2019-05-15T23:06:11.501Z,6.50
2019-05-15T23:08:39.312Z,6.50
2019-05-15T23:11:09.494Z,6.50
2019-05-15T23:13:38.811Z,6.50
2019-05-15T23:16:06.126Z,6.50
2019-05-15T23:18:33.921Z,6.50
2019-05-15T23:21:01.727Z,6.50
2019-05-15T23:23:29.873Z,6.50
2019-05-15T23:25:57.969Z,6.50
2019-05-15T23:28:28.056Z,6.40
2019-05-15T23:30:57.589Z,6.50
2019-05-15T23:33:25.008Z,6.40
2019-05-15T23:35:52.704Z,6.50
2019-05-15T23:38:20.396Z,6.40
2019-05-15T23:40:48.431Z,6.50
2019-05-15T23:43:18.769Z,6.50
2019-05-15T23:45:45.665Z,6.50
2019-05-15T23:48:13.309Z,6.40
2019-05-15T23:50:41.024Z,6.50
2019-05-15T23:53:09.095Z,6.50
2019-05-15T23:55:36.755Z,6.50
2019-05-15T23:58:04.423Z,6.50
